createdAt,value
2019-03-18T00:00:24.627Z,978.85
2019-03-18T00:01:24.805Z,978.89
2019-03-18T00:02:24.993Z,978.92
2019-03-18T00:03:25.163Z,978.90
2019-03-18T00:04:25.354Z,978.90
2019-03-18T00:05:25.525Z,978.93
2019-03-18T00:06:25.706Z,978.96
2019-03-18T00:07:25.894Z,979.00
2019-03-18T00:08:26.068Z,978.99
2019-03-18T00:09:26.265Z,979.03
2019-03-18T00:10:26.438Z,979.04
2019-03-18T00:11:26.632Z,979.05
2019-03-18T00:12:26.812Z,979.06
2019-03-18T00:13:26.993Z,979.03
2019-03-18T00:14:27.180Z,979.01
2019-03-18T00:15:27.351Z,979.03
2019-03-18T00:16:27.529Z,979.02
2019-03-18T00:17:27.705Z,979.04
2019-03-18T00:18:27.886Z,979.00
2019-03-18T00:19:28.079Z,979.01
2019-03-18T00:20:28.276Z,979.03
2019-03-18T00:21:28.462Z,978.99
2019-03-18T00:22:28.644Z,979.00
2019-03-18T00:23:28.821Z,979.00
2019-03-18T00:24:28.992Z,979.04
2019-03-18T00:25:29.170Z,979.03
2019-03-18T00:26:29.358Z,979.05
2019-03-18T00:27:29.537Z,979.07
2019-03-18T00:28:29.731Z,979.07
2019-03-18T00:29:29.905Z,979.12
2019-03-18T00:30:30.083Z,979.16
2019-03-18T00:31:30.281Z,979.18
2019-03-18T00:32:30.458Z,979.19
2019-03-18T00:33:30.639Z,979.24
2019-03-18T00:34:30.823Z,979.25
2019-03-18T00:35:31.002Z,979.29
2019-03-18T00:36:31.180Z,979.23
2019-03-18T00:37:31.364Z,979.30
2019-03-18T00:38:31.546Z,979.30
2019-03-18T00:39:31.727Z,979.32
2019-03-18T00:40:31.903Z,979.31
2019-03-18T00:41:32.079Z,979.29
2019-03-18T00:42:32.262Z,979.31
2019-03-18T00:43:32.440Z,979.28
2019-03-18T00:44:32.614Z,979.29
2019-03-18T00:45:32.805Z,979.29
2019-03-18T00:46:32.974Z,979.25
2019-03-18T00:47:33.151Z,979.32
2019-03-18T00:48:33.342Z,979.35
2019-03-18T00:49:33.518Z,979.37
2019-03-18T00:50:33.696Z,979.43
2019-03-18T00:51:33.872Z,979.44
2019-03-18T00:52:34.058Z,979.40
2019-03-18T00:53:34.233Z,979.41
2019-03-18T00:54:34.414Z,979.38
2019-03-18T00:55:34.596Z,979.37
2019-03-18T00:56:34.776Z,979.46
2019-03-18T00:57:34.959Z,979.43
2019-03-18T00:58:35.138Z,979.46
2019-03-18T00:59:35.319Z,979.44
2019-03-18T01:00:35.497Z,979.46
2019-03-18T01:01:35.671Z,979.48
2019-03-18T01:02:35.855Z,979.51
2019-03-18T01:03:36.033Z,979.54
2019-03-18T01:04:36.211Z,979.52
2019-03-18T01:05:36.391Z,979.51
2019-03-18T01:06:36.574Z,979.48
2019-03-18T01:07:36.751Z,979.45
2019-03-18T01:08:36.928Z,979.49
2019-03-18T01:09:37.111Z,979.43
2019-03-18T01:10:37.290Z,979.44
2019-03-18T01:11:37.484Z,979.42
2019-03-18T01:12:37.644Z,979.43
2019-03-18T01:13:37.827Z,979.42
2019-03-18T01:14:37.999Z,979.37
2019-03-18T01:15:38.178Z,979.45
2019-03-18T01:16:38.356Z,979.45
2019-03-18T01:17:38.535Z,979.49
2019-03-18T01:18:38.714Z,979.49
2019-03-18T01:19:38.886Z,979.44
2019-03-18T01:20:39.065Z,979.46
2019-03-18T01:21:39.245Z,979.46
2019-03-18T01:22:39.427Z,979.43
2019-03-18T01:23:39.607Z,979.46
2019-03-18T01:24:39.781Z,979.54
2019-03-18T01:25:39.961Z,979.49
2019-03-18T01:26:40.139Z,979.52
2019-03-18T01:27:40.317Z,979.52
2019-03-18T01:28:40.505Z,979.52
2019-03-18T01:29:40.678Z,979.53
2019-03-18T01:30:40.863Z,979.57
2019-03-18T01:31:41.044Z,979.57
2019-03-18T01:32:41.237Z,979.54
2019-03-18T01:33:41.403Z,979.54
2019-03-18T01:34:41.580Z,979.51
2019-03-18T01:35:41.757Z,979.51
2019-03-18T01:36:41.936Z,979.54
2019-03-18T01:37:42.121Z,979.56
2019-03-18T01:38:42.297Z,979.53
2019-03-18T01:39:42.479Z,979.49
2019-03-18T01:40:42.658Z,979.49
2019-03-18T01:41:42.839Z,979.49
2019-03-18T01:42:43.039Z,979.55
2019-03-18T01:43:43.195Z,979.57
2019-03-18T01:44:43.375Z,979.54
2019-03-18T01:45:43.561Z,979.51
2019-03-18T01:46:43.744Z,979.47
2019-03-18T01:47:43.918Z,979.51
2019-03-18T01:48:44.104Z,979.50
2019-03-18T01:49:44.283Z,979.52
2019-03-18T01:50:44.461Z,979.56
2019-03-18T01:51:44.644Z,979.53
2019-03-18T01:52:44.822Z,979.57
2019-03-18T01:53:45.004Z,979.60
2019-03-18T01:54:45.201Z,979.59
2019-03-18T01:55:45.360Z,979.60
2019-03-18T01:56:45.547Z,979.67
2019-03-18T01:57:45.722Z,979.65
2019-03-18T01:58:45.906Z,979.54
2019-03-18T01:59:46.087Z,979.57
2019-03-18T02:00:46.268Z,979.69
2019-03-18T02:01:46.448Z,979.74
2019-03-18T02:02:46.624Z,979.67
2019-03-18T02:03:46.812Z,979.65
2019-03-18T02:04:46.989Z,979.57
2019-03-18T02:05:47.176Z,979.55
2019-03-18T02:06:47.355Z,979.58
2019-03-18T02:07:47.539Z,979.62
2019-03-18T02:08:47.717Z,979.58
2019-03-18T02:09:47.895Z,979.53
2019-03-18T02:10:48.086Z,979.59
2019-03-18T02:11:48.258Z,979.51
2019-03-18T02:12:48.436Z,979.56
2019-03-18T02:13:48.614Z,979.54
2019-03-18T02:14:48.793Z,979.50
2019-03-18T02:15:53.596Z,979.53
2019-03-18T02:16:49.150Z,979.50
2019-03-18T02:17:49.336Z,979.54
2019-03-18T02:18:49.517Z,979.50
2019-03-18T02:19:49.703Z,979.47
2019-03-18T02:20:49.880Z,979.52
2019-03-18T02:21:50.064Z,979.56
2019-03-18T02:22:50.242Z,979.57
2019-03-18T02:23:50.412Z,979.58
2019-03-18T02:24:50.592Z,979.59
2019-03-18T02:25:50.788Z,979.59
2019-03-18T02:26:50.955Z,979.60
2019-03-18T02:27:51.136Z,979.62
2019-03-18T02:28:51.311Z,979.68
2019-03-18T02:29:51.495Z,979.68
2019-03-18T02:30:51.735Z,979.71
2019-03-18T02:31:51.855Z,979.66
2019-03-18T02:32:52.043Z,979.71
2019-03-18T02:33:52.229Z,979.69
2019-03-18T02:34:52.404Z,979.71
2019-03-18T02:35:52.584Z,979.72
2019-03-18T02:36:52.766Z,979.74
2019-03-18T02:37:52.950Z,979.75
2019-03-18T02:38:53.133Z,979.79
2019-03-18T02:39:53.311Z,979.71
2019-03-18T02:40:53.488Z,979.74
2019-03-18T02:41:53.670Z,979.73
2019-03-18T02:42:53.846Z,979.77
2019-03-18T02:43:54.032Z,979.78
2019-03-18T02:44:54.209Z,979.79
2019-03-18T02:46:09.273Z,979.74
2019-03-18T02:46:54.570Z,979.74
2019-03-18T02:47:54.772Z,979.69
2019-03-18T02:48:54.945Z,979.72
2019-03-18T02:49:55.147Z,979.67
2019-03-18T02:50:55.307Z,979.66
2019-03-18T02:51:55.488Z,979.66
2019-03-18T02:52:55.684Z,979.67
2019-03-18T02:53:55.857Z,979.71
2019-03-18T02:54:56.041Z,979.73
2019-03-18T02:55:56.209Z,979.68
2019-03-18T02:56:56.393Z,979.70
2019-03-18T02:57:56.575Z,979.66
2019-03-18T02:58:56.766Z,979.70
2019-03-18T02:59:56.930Z,979.70
2019-03-18T03:00:57.120Z,979.73
2019-03-18T03:01:57.311Z,979.72
2019-03-18T03:02:57.481Z,979.74
2019-03-18T03:03:57.658Z,979.73
2019-03-18T03:04:57.841Z,979.75
2019-03-18T03:05:58.017Z,979.72
2019-03-18T03:06:58.204Z,979.77
2019-03-18T03:07:58.384Z,979.76
2019-03-18T03:08:58.560Z,979.78
2019-03-18T03:09:58.757Z,979.80
2019-03-18T03:10:58.928Z,979.83
2019-03-18T03:11:59.116Z,979.76
2019-03-18T03:12:59.283Z,979.80
2019-03-18T03:13:59.469Z,979.76
2019-03-18T03:14:59.651Z,979.74
2019-03-18T03:15:59.826Z,979.71
2019-03-18T03:17:00.004Z,979.75
2019-03-18T03:18:00.183Z,979.78
2019-03-18T03:19:00.361Z,979.78
2019-03-18T03:20:00.572Z,979.77
2019-03-18T03:21:00.725Z,979.76
2019-03-18T03:22:00.914Z,979.72
2019-03-18T03:23:01.100Z,979.72
2019-03-18T03:24:01.275Z,979.70
2019-03-18T03:25:01.449Z,979.78
2019-03-18T03:26:01.654Z,979.78
2019-03-18T03:27:01.852Z,979.72
2019-03-18T03:28:02.040Z,979.70
2019-03-18T03:29:02.226Z,979.72
2019-03-18T03:30:02.457Z,979.69
2019-03-18T03:31:02.602Z,979.72
2019-03-18T03:32:02.808Z,979.72
2019-03-18T03:33:02.934Z,979.74
2019-03-18T03:34:03.129Z,979.74
2019-03-18T03:35:03.356Z,979.75
2019-03-18T03:36:03.484Z,979.73
2019-03-18T03:37:03.667Z,979.78
2019-03-18T03:38:03.833Z,979.80
2019-03-18T03:39:04.029Z,979.75
2019-03-18T03:40:04.219Z,979.77
2019-03-18T03:41:04.400Z,979.77
2019-03-18T03:42:04.571Z,979.80
2019-03-18T03:43:04.763Z,979.83
2019-03-18T03:44:04.934Z,979.79
2019-03-18T03:45:05.119Z,979.79
2019-03-18T03:46:05.302Z,979.82
2019-03-18T03:47:05.477Z,979.89
2019-03-18T03:48:05.649Z,979.83
2019-03-18T03:49:05.838Z,979.88
2019-03-18T03:50:06.007Z,979.87
2019-03-18T03:51:06.186Z,979.85
2019-03-18T03:52:06.379Z,979.92
2019-03-18T03:53:06.564Z,979.96
2019-03-18T03:54:06.741Z,979.97
2019-03-18T03:55:06.921Z,979.96
2019-03-18T03:56:07.106Z,979.98
2019-03-18T03:57:07.279Z,980.01
2019-03-18T03:58:07.462Z,979.98
2019-03-18T03:59:07.646Z,980.08
2019-03-18T04:00:07.830Z,980.03
2019-03-18T04:01:08.009Z,980.03
2019-03-18T04:02:08.206Z,980.09
2019-03-18T04:03:08.371Z,980.06
2019-03-18T04:04:08.549Z,980.07
2019-03-18T04:05:08.725Z,980.08
2019-03-18T04:06:08.910Z,980.13
2019-03-18T04:07:09.100Z,980.10
2019-03-18T04:08:09.294Z,980.11
2019-03-18T04:09:09.465Z,980.12
2019-03-18T04:10:09.640Z,980.04
2019-03-18T04:11:09.843Z,980.07
2019-03-18T04:12:10.007Z,980.09
2019-03-18T04:13:10.197Z,980.08
2019-03-18T04:14:10.371Z,980.06
2019-03-18T04:15:10.548Z,980.13
2019-03-18T04:16:10.734Z,980.08
2019-03-18T04:17:10.918Z,980.08
2019-03-18T04:18:11.087Z,980.05
2019-03-18T04:19:11.276Z,980.02
2019-03-18T04:20:11.458Z,980.01
2019-03-18T04:21:11.642Z,980.01
2019-03-18T04:22:11.816Z,979.99
2019-03-18T04:23:11.998Z,980.01
2019-03-18T04:24:12.177Z,979.98
2019-03-18T04:25:12.361Z,980.01
2019-03-18T04:26:12.542Z,980.01
2019-03-18T04:27:12.726Z,980.07
2019-03-18T04:28:12.919Z,980.07
2019-03-18T04:29:13.098Z,980.14
2019-03-18T04:30:13.288Z,980.08
2019-03-18T04:31:13.461Z,980.09
2019-03-18T04:32:13.641Z,980.11
2019-03-18T04:33:13.822Z,980.07
2019-03-18T04:34:14.001Z,980.04
2019-03-18T04:35:14.186Z,980.09
2019-03-18T04:36:14.367Z,980.10
2019-03-18T04:37:14.545Z,980.13
2019-03-18T04:38:14.726Z,980.20
2019-03-18T04:39:14.902Z,980.14
2019-03-18T04:40:15.083Z,980.17
2019-03-18T04:41:15.266Z,980.18
2019-03-18T04:42:15.440Z,980.19
2019-03-18T04:43:15.617Z,980.16
2019-03-18T04:44:15.800Z,980.20
2019-03-18T04:45:15.984Z,980.21
2019-03-18T04:46:16.173Z,980.19
2019-03-18T04:47:16.362Z,980.20
2019-03-18T04:48:16.546Z,980.21
2019-03-18T04:49:16.726Z,980.25
2019-03-18T04:50:16.906Z,980.28
2019-03-18T04:51:17.083Z,980.35
2019-03-18T04:52:17.260Z,980.33
2019-03-18T04:53:17.435Z,980.38
2019-03-18T04:54:17.616Z,980.41
2019-03-18T04:55:17.800Z,980.39
2019-03-18T04:56:17.991Z,980.39
2019-03-18T04:57:18.176Z,980.43
2019-03-18T04:58:18.354Z,980.37
2019-03-18T04:59:18.529Z,980.39
2019-03-18T05:00:18.707Z,980.36
2019-03-18T05:01:18.889Z,980.35
2019-03-18T05:02:19.067Z,980.36
2019-03-18T05:03:19.246Z,980.34
2019-03-18T05:04:19.422Z,980.38
2019-03-18T05:05:19.622Z,980.40
2019-03-18T05:06:19.792Z,980.44
2019-03-18T05:07:19.973Z,980.43
2019-03-18T05:08:20.153Z,980.38
2019-03-18T05:09:20.337Z,980.35
2019-03-18T05:10:20.516Z,980.35
2019-03-18T05:11:20.696Z,980.30
2019-03-18T05:12:20.878Z,980.40
2019-03-18T05:13:21.054Z,980.39
2019-03-18T05:14:21.250Z,980.43
2019-03-18T05:15:21.425Z,980.47
2019-03-18T05:16:21.601Z,980.45
2019-03-18T05:17:26.475Z,980.49
2019-03-18T05:18:21.962Z,980.52
2019-03-18T05:19:22.139Z,980.52
2019-03-18T05:20:22.321Z,980.52
2019-03-18T05:21:22.502Z,980.54
2019-03-18T05:22:22.691Z,980.55
2019-03-18T05:23:22.868Z,980.57
2019-03-18T05:24:23.054Z,980.57
2019-03-18T05:25:23.232Z,980.56
2019-03-18T05:26:23.418Z,980.56
2019-03-18T05:27:23.604Z,980.49
2019-03-18T05:28:23.781Z,980.51
2019-03-18T05:29:23.965Z,980.50
2019-03-18T05:30:24.144Z,980.42
2019-03-18T05:31:24.324Z,980.47
2019-03-18T05:32:24.504Z,980.42
2019-03-18T05:33:24.702Z,980.48
2019-03-18T05:34:24.873Z,980.47
2019-03-18T05:35:25.066Z,980.54
2019-03-18T05:36:25.246Z,980.58
2019-03-18T05:37:25.422Z,980.54
2019-03-18T05:38:25.604Z,980.60
2019-03-18T05:39:25.780Z,980.56
2019-03-18T05:40:25.968Z,980.60
2019-03-18T05:41:26.159Z,980.61
2019-03-18T05:42:26.322Z,980.64
2019-03-18T05:43:26.495Z,980.67
2019-03-18T05:44:26.685Z,980.69
2019-03-18T05:45:26.865Z,980.66
2019-03-18T05:46:27.056Z,980.70
2019-03-18T05:47:38.722Z,980.72
2019-03-18T05:48:27.422Z,980.71
2019-03-18T05:49:27.596Z,980.75
2019-03-18T05:50:27.778Z,980.74
2019-03-18T05:51:27.955Z,980.77
2019-03-18T05:52:28.137Z,980.83
2019-03-18T05:53:28.319Z,980.82
2019-03-18T05:54:28.502Z,980.82
2019-03-18T05:55:28.681Z,980.81
2019-03-18T05:56:28.867Z,980.88
2019-03-18T05:57:29.047Z,980.87
2019-03-18T05:58:29.233Z,980.89
2019-03-18T05:59:29.407Z,980.87
2019-03-18T06:00:29.583Z,980.88
2019-03-18T06:01:29.766Z,980.93
2019-03-18T06:02:29.948Z,980.88
2019-03-18T06:03:30.127Z,980.88
2019-03-18T06:04:30.308Z,980.85
2019-03-18T06:05:30.497Z,980.79
2019-03-18T06:06:30.668Z,980.84
2019-03-18T06:07:30.849Z,980.83
2019-03-18T06:08:31.034Z,980.87
2019-03-18T06:09:31.212Z,980.88
2019-03-18T06:10:31.394Z,980.91
2019-03-18T06:11:31.583Z,980.90
2019-03-18T06:12:31.768Z,980.91
2019-03-18T06:13:31.946Z,980.86
2019-03-18T06:14:32.132Z,980.89
2019-03-18T06:15:32.317Z,980.89
2019-03-18T06:16:32.505Z,980.90
2019-03-18T06:17:32.685Z,980.94
2019-03-18T06:18:32.866Z,980.92
2019-03-18T06:19:33.049Z,981.03
2019-03-18T06:20:33.226Z,980.98
2019-03-18T06:21:33.413Z,981.08
2019-03-18T06:22:33.589Z,981.09
2019-03-18T06:23:33.776Z,981.09
2019-03-18T06:24:33.958Z,981.13
2019-03-18T06:25:34.138Z,981.15
2019-03-18T06:26:34.315Z,981.18
2019-03-18T06:27:34.496Z,981.20
2019-03-18T06:28:34.691Z,981.19
2019-03-18T06:29:34.858Z,981.21
2019-03-18T06:30:35.037Z,981.23
2019-03-18T06:31:35.217Z,981.23
2019-03-18T06:32:35.398Z,981.25
2019-03-18T06:33:35.578Z,981.28
2019-03-18T06:34:35.761Z,981.32
2019-03-18T06:35:35.945Z,981.29
2019-03-18T06:36:36.128Z,981.31
2019-03-18T06:37:36.303Z,981.29
2019-03-18T06:38:36.489Z,981.31
2019-03-18T06:39:36.665Z,981.29
2019-03-18T06:40:36.847Z,981.34
2019-03-18T06:41:37.032Z,981.37
2019-03-18T06:42:37.221Z,981.31
2019-03-18T06:43:37.400Z,981.36
2019-03-18T06:44:37.578Z,981.39
2019-03-18T06:45:37.763Z,981.41
2019-03-18T06:46:37.946Z,981.43
2019-03-18T06:47:38.129Z,981.46
2019-03-18T06:48:38.306Z,981.45
2019-03-18T06:49:38.491Z,981.47
2019-03-18T06:50:38.668Z,981.45
2019-03-18T06:51:38.852Z,981.43
2019-03-18T06:52:39.042Z,981.46
2019-03-18T06:53:40.315Z,981.41
2019-03-18T06:54:39.403Z,981.42
2019-03-18T06:55:39.580Z,981.44
2019-03-18T06:56:39.761Z,981.51
2019-03-18T06:57:39.947Z,981.54
2019-03-18T06:58:40.124Z,981.58
2019-03-18T06:59:40.720Z,981.54
2019-03-18T07:00:40.531Z,981.58
2019-03-18T07:01:40.711Z,981.59
2019-03-18T07:02:40.902Z,981.59
2019-03-18T07:03:41.086Z,981.62
2019-03-18T07:04:41.264Z,981.66
2019-03-18T07:05:41.454Z,981.69
2019-03-18T07:06:41.638Z,981.76
2019-03-18T07:07:41.816Z,981.71
2019-03-18T07:08:42.000Z,981.75
2019-03-18T07:09:42.187Z,981.76
2019-03-18T07:10:42.378Z,981.76
2019-03-18T07:11:42.563Z,981.80
2019-03-18T07:12:42.747Z,981.83
2019-03-18T07:13:42.920Z,981.82
2019-03-18T07:14:43.103Z,981.82
2019-03-18T07:15:43.279Z,981.88
2019-03-18T07:16:43.467Z,981.89
2019-03-18T07:17:43.655Z,981.93
2019-03-18T07:18:43.828Z,982.00
2019-03-18T07:19:44.007Z,981.97
2019-03-18T07:20:44.191Z,981.98
2019-03-18T07:21:44.371Z,982.03
2019-03-18T07:22:44.550Z,982.09
2019-03-18T07:23:44.731Z,982.09
2019-03-18T07:24:44.914Z,982.10
2019-03-18T07:25:45.097Z,982.13
2019-03-18T07:26:45.277Z,982.16
2019-03-18T07:27:45.462Z,982.20
2019-03-18T07:28:45.648Z,982.26
2019-03-18T07:29:45.830Z,982.29
2019-03-18T07:30:46.015Z,982.32
2019-03-18T07:31:46.203Z,982.34
2019-03-18T07:32:46.386Z,982.37
2019-03-18T07:33:46.564Z,982.37
2019-03-18T07:34:46.741Z,982.37
2019-03-18T07:35:46.921Z,982.39
2019-03-18T07:36:47.104Z,982.43
2019-03-18T07:37:47.285Z,982.44
2019-03-18T07:38:47.470Z,982.46
2019-03-18T07:39:47.666Z,982.47
2019-03-18T07:40:47.831Z,982.46
2019-03-18T07:41:48.020Z,982.45
2019-03-18T07:42:48.202Z,982.45
2019-03-18T07:43:48.378Z,982.48
2019-03-18T07:44:48.566Z,982.46
2019-03-18T07:45:48.754Z,982.50
2019-03-18T07:46:48.931Z,982.49
2019-03-18T07:47:49.118Z,982.52
2019-03-18T07:48:49.299Z,982.53
2019-03-18T07:49:49.481Z,982.59
2019-03-18T07:50:49.663Z,982.66
2019-03-18T07:51:49.845Z,982.66
2019-03-18T07:52:50.031Z,982.69
2019-03-18T07:53:50.211Z,982.67
2019-03-18T07:54:50.393Z,982.67
2019-03-18T07:55:50.575Z,982.69
2019-03-18T07:56:50.763Z,982.69
2019-03-18T07:57:50.951Z,982.72
2019-03-18T07:58:51.133Z,982.71
2019-03-18T07:59:51.308Z,982.72
2019-03-18T08:00:51.521Z,982.74
2019-03-18T08:01:51.673Z,982.74
2019-03-18T08:02:51.881Z,982.74
2019-03-18T08:03:52.056Z,982.74
2019-03-18T08:04:52.237Z,982.76
2019-03-18T08:05:52.406Z,982.74
2019-03-18T08:06:52.589Z,982.77
2019-03-18T08:07:52.768Z,982.81
2019-03-18T08:08:53.606Z,982.80
2019-03-18T08:09:53.139Z,982.82
2019-03-18T08:10:53.323Z,982.82
2019-03-18T08:11:53.503Z,982.85
2019-03-18T08:12:53.684Z,982.84
2019-03-18T08:13:53.865Z,982.84
2019-03-18T08:14:54.046Z,982.87
2019-03-18T08:15:54.235Z,982.90
2019-03-18T08:16:54.409Z,982.87
2019-03-18T08:17:54.593Z,982.88
2019-03-18T08:18:54.779Z,982.87
2019-03-18T08:19:54.954Z,982.91
2019-03-18T08:20:55.138Z,982.88
2019-03-18T08:21:55.319Z,982.95
2019-03-18T08:22:55.499Z,982.97
2019-03-18T08:23:55.690Z,982.95
2019-03-18T08:24:55.866Z,982.98
2019-03-18T08:25:56.047Z,983.02
2019-03-18T08:26:56.224Z,983.04
2019-03-18T08:27:56.417Z,983.05
2019-03-18T08:28:56.589Z,983.09
2019-03-18T08:29:56.768Z,983.07
2019-03-18T08:30:56.951Z,983.11
2019-03-18T08:31:57.132Z,983.05
2019-03-18T08:32:57.321Z,983.07
2019-03-18T08:33:57.511Z,983.14
2019-03-18T08:34:57.687Z,983.11
2019-03-18T08:35:57.873Z,983.11
2019-03-18T08:36:58.053Z,983.13
2019-03-18T08:37:58.232Z,983.14
2019-03-18T08:38:58.419Z,983.14
2019-03-18T08:39:58.597Z,983.21
2019-03-18T08:40:58.775Z,983.20
2019-03-18T08:41:58.962Z,983.21
2019-03-18T08:42:59.139Z,983.20
2019-03-18T08:43:59.324Z,983.19
2019-03-18T08:44:59.511Z,983.22
2019-03-18T08:45:59.700Z,983.23
2019-03-18T08:46:59.884Z,983.28
2019-03-18T08:48:00.066Z,983.28
2019-03-18T08:49:00.246Z,983.26
2019-03-18T08:50:00.439Z,983.32
2019-03-18T08:51:00.619Z,983.29
2019-03-18T08:52:00.788Z,983.29
2019-03-18T08:53:00.973Z,983.38
2019-03-18T08:54:01.168Z,983.42
2019-03-18T08:55:01.351Z,983.39
2019-03-18T08:56:01.529Z,983.41
2019-03-18T08:57:01.718Z,983.36
2019-03-18T08:58:01.902Z,983.35
2019-03-18T08:59:02.081Z,983.37
2019-03-18T09:00:02.272Z,983.33
2019-03-18T09:01:02.452Z,983.33
2019-03-18T09:02:02.635Z,983.36
2019-03-18T09:03:02.868Z,983.37
2019-03-18T09:04:03.004Z,983.41
2019-03-18T09:05:03.184Z,983.42
2019-03-18T09:06:03.370Z,983.39
2019-03-18T09:07:03.559Z,983.42
2019-03-18T09:08:03.745Z,983.41
2019-03-18T09:09:03.928Z,983.46
2019-03-18T09:10:04.114Z,983.57
2019-03-18T09:11:04.321Z,983.54
2019-03-18T09:12:04.484Z,983.48
2019-03-18T09:13:04.674Z,983.50
2019-03-18T09:14:04.863Z,983.58
2019-03-18T09:15:05.042Z,983.59
2019-03-18T09:16:05.233Z,983.57
2019-03-18T09:17:05.411Z,983.55
2019-03-18T09:18:05.598Z,983.56
2019-03-18T09:19:08.897Z,983.60
2019-03-18T09:20:05.967Z,983.57
2019-03-18T09:21:06.153Z,983.56
2019-03-18T09:22:06.335Z,983.61
2019-03-18T09:23:06.526Z,983.59
2019-03-18T09:24:06.709Z,983.61
2019-03-18T09:25:06.896Z,983.71
2019-03-18T09:26:07.084Z,983.68
2019-03-18T09:27:07.269Z,983.68
2019-03-18T09:28:07.458Z,983.69
2019-03-18T09:29:07.641Z,983.72
2019-03-18T09:30:07.810Z,983.78
2019-03-18T09:31:08.025Z,984.06
2019-03-18T09:32:08.179Z,983.85
2019-03-18T09:33:08.463Z,984.20
2019-03-18T09:34:08.553Z,984.30
2019-03-18T09:35:08.741Z,984.17
2019-03-18T09:36:08.932Z,983.98
2019-03-18T09:37:09.116Z,983.90
2019-03-18T09:38:09.315Z,983.87
2019-03-18T09:39:09.498Z,983.95
2019-03-18T09:40:09.685Z,983.97
2019-03-18T09:41:09.874Z,984.07
2019-03-18T09:42:10.062Z,984.03
2019-03-18T09:43:10.250Z,984.21
2019-03-18T09:44:10.442Z,984.24
2019-03-18T09:45:10.630Z,984.42
2019-03-18T09:46:10.822Z,984.47
2019-03-18T09:47:11.009Z,984.25
2019-03-18T09:48:11.197Z,984.48
2019-03-18T09:49:20.980Z,984.15
2019-03-18T09:50:11.575Z,984.17
2019-03-18T09:51:11.763Z,984.02
2019-03-18T09:52:11.957Z,984.01
2019-03-18T09:53:12.159Z,984.01
2019-03-18T09:54:12.347Z,984.01
2019-03-18T09:55:12.532Z,984.04
2019-03-18T09:56:12.719Z,984.00
2019-03-18T09:57:25.083Z,984.01
2019-03-18T09:58:13.101Z,983.96
2019-03-18T09:59:13.293Z,983.98
2019-03-18T10:00:13.481Z,984.02
2019-03-18T10:01:13.667Z,983.96
2019-03-18T10:02:13.862Z,984.03
2019-03-18T10:03:14.048Z,984.26
2019-03-18T10:04:14.248Z,984.36
2019-03-18T10:05:14.437Z,984.21
2019-03-18T10:06:14.624Z,984.08
2019-03-18T10:07:14.816Z,984.37
2019-03-18T10:08:15.002Z,984.43
2019-03-18T10:09:15.192Z,984.39
2019-03-18T10:10:15.404Z,984.48
2019-03-18T10:11:15.639Z,984.42
2019-03-18T10:12:15.767Z,984.49
2019-03-18T10:13:15.958Z,984.49
2019-03-18T10:14:16.145Z,984.49
2019-03-18T10:15:16.340Z,984.47
2019-03-18T10:16:16.531Z,984.51
2019-03-18T10:17:16.740Z,984.57
2019-03-18T10:18:16.946Z,984.45
2019-03-18T10:19:17.127Z,984.23
2019-03-18T10:20:17.320Z,984.56
2019-03-18T10:21:17.514Z,984.48
2019-03-18T10:22:17.713Z,984.42
2019-03-18T10:23:17.908Z,984.42
2019-03-18T10:24:18.107Z,984.55
2019-03-18T10:25:18.311Z,984.63
2019-03-18T10:26:18.514Z,984.42
2019-03-18T10:27:18.722Z,984.21
2019-03-18T10:28:18.907Z,984.25
2019-03-18T10:29:19.105Z,984.55
2019-03-18T10:30:19.304Z,984.58
2019-03-18T10:31:19.510Z,984.52
2019-03-18T10:32:19.705Z,984.69
2019-03-18T10:33:19.900Z,984.50
2019-03-18T10:34:20.096Z,984.73
2019-03-18T10:35:20.285Z,984.53
2019-03-18T10:36:20.489Z,984.81
2019-03-18T10:37:20.681Z,984.82
2019-03-18T10:38:20.874Z,984.65
2019-03-18T10:39:21.070Z,984.64
2019-03-18T10:40:21.261Z,984.55
2019-03-18T10:41:21.457Z,984.81
2019-03-18T10:42:21.652Z,984.53
2019-03-18T10:43:21.856Z,984.58
2019-03-18T10:44:22.056Z,984.62
2019-03-18T10:45:22.246Z,984.51
2019-03-18T10:46:22.485Z,984.64
2019-03-18T10:47:22.687Z,984.56
2019-03-18T10:48:22.822Z,984.66
2019-03-18T10:49:23.015Z,984.52
2019-03-18T10:50:23.213Z,984.47
2019-03-18T10:51:23.408Z,984.61
2019-03-18T10:52:23.610Z,984.62
2019-03-18T10:53:23.796Z,984.67
2019-03-18T10:54:30.838Z,984.88
2019-03-18T10:55:24.180Z,984.94
2019-03-18T10:56:24.371Z,984.79
2019-03-18T10:57:24.611Z,984.83
2019-03-18T10:58:24.744Z,984.89
2019-03-18T10:59:24.937Z,984.97
2019-03-18T11:00:25.130Z,984.88
2019-03-18T11:01:25.315Z,984.97
2019-03-18T11:02:25.510Z,985.01
2019-03-18T11:03:25.707Z,985.02
2019-03-18T11:04:25.893Z,985.00
2019-03-18T11:05:26.085Z,985.00
2019-03-18T11:06:26.282Z,984.97
2019-03-18T11:07:26.468Z,984.99
2019-03-18T11:08:26.675Z,984.99
2019-03-18T11:09:26.855Z,985.00
2019-03-18T11:10:27.057Z,985.01
2019-03-18T11:11:27.258Z,985.01
2019-03-18T11:12:27.442Z,985.00
2019-03-18T11:13:27.643Z,985.05
2019-03-18T11:14:27.836Z,985.05
2019-03-18T11:15:28.028Z,985.08
2019-03-18T11:16:28.220Z,985.12
2019-03-18T11:17:28.414Z,985.16
2019-03-18T11:18:28.610Z,985.12
2019-03-18T11:19:28.801Z,985.16
2019-03-18T11:20:28.995Z,985.18
2019-03-18T11:21:29.199Z,985.13
2019-03-18T11:22:29.401Z,985.14
2019-03-18T11:23:29.595Z,985.22
2019-03-18T11:24:29.784Z,985.20
2019-03-18T11:25:29.990Z,985.13
2019-03-18T11:26:30.182Z,985.16
2019-03-18T11:27:30.375Z,985.13
2019-03-18T11:28:30.567Z,985.07
2019-03-18T11:29:30.765Z,985.11
2019-03-18T11:30:30.967Z,985.13
2019-03-18T11:31:31.159Z,985.09
2019-03-18T11:32:31.353Z,985.09
2019-03-18T11:33:31.551Z,985.06
2019-03-18T11:34:31.743Z,985.11
2019-03-18T11:35:31.939Z,985.06
2019-03-18T11:36:32.131Z,985.09
2019-03-18T11:37:32.335Z,985.09
2019-03-18T11:38:32.531Z,985.09
2019-03-18T11:39:32.730Z,984.98
2019-03-18T11:40:32.933Z,985.01
2019-03-18T11:41:33.124Z,984.91
2019-03-18T11:42:33.328Z,984.96
2019-03-18T11:43:33.509Z,984.83
2019-03-18T11:44:35.839Z,984.84
2019-03-18T11:45:56.797Z,984.87
2019-03-18T11:46:35.293Z,984.86
2019-03-18T11:47:35.793Z,984.81
2019-03-18T11:48:35.371Z,984.76
2019-03-18T11:49:39.502Z,984.85
2019-03-18T11:50:35.798Z,984.89
2019-03-18T11:51:36.803Z,985.09
2019-03-18T11:52:35.794Z,984.97
2019-03-18T11:55:18.215Z,984.79
2019-03-18T11:56:18.399Z,984.73
2019-03-18T11:57:18.610Z,984.79
2019-03-18T11:58:18.788Z,984.76
2019-03-18T11:59:20.939Z,984.77
2019-03-18T12:00:19.178Z,984.78
2019-03-18T12:01:19.364Z,984.97
2019-03-18T12:02:27.571Z,985.02
2019-03-18T12:03:19.757Z,985.01
2019-03-18T12:04:19.957Z,984.97
2019-03-18T12:05:20.140Z,985.01
2019-03-18T12:06:20.331Z,985.01
2019-03-18T12:07:20.518Z,985.02
2019-03-18T12:08:20.715Z,985.02
2019-03-18T12:09:20.903Z,984.96
2019-03-18T12:10:21.096Z,984.98
2019-03-18T12:11:21.284Z,984.99
2019-03-18T12:12:21.474Z,985.01
2019-03-18T12:13:21.673Z,984.75
2019-03-18T12:14:21.861Z,984.68
2019-03-18T12:15:22.048Z,984.71
2019-03-18T12:16:22.249Z,984.73
2019-03-18T12:17:22.438Z,984.87
2019-03-18T12:18:22.625Z,984.90
2019-03-18T12:19:23.238Z,984.98
2019-03-18T12:20:25.503Z,984.86
2019-03-18T12:21:24.643Z,984.94
2019-03-18T12:22:24.113Z,984.89
2019-03-18T12:23:24.115Z,984.81
2019-03-18T12:24:23.816Z,984.80
2019-03-18T12:25:23.999Z,984.77
2019-03-18T12:26:24.191Z,984.72
2019-03-18T12:27:24.385Z,984.63
2019-03-18T12:28:24.573Z,984.66
2019-03-18T12:29:24.777Z,984.71
2019-03-18T12:30:24.960Z,984.69
2019-03-18T12:31:25.144Z,984.71
2019-03-18T12:32:25.332Z,984.70